createdAt,value
2018-12-22T00:02:33.063Z,95286.56
2018-12-22T00:05:08.448Z,95293.88
2018-12-22T00:07:43.666Z,95306.10
2018-12-22T00:10:18.468Z,95291.40
2018-12-22T00:12:53.696Z,95289.27
2018-12-22T00:15:28.683Z,95296.30
2018-12-22T00:18:03.129Z,95293.28
2018-12-22T00:20:37.835Z,95292.01
2018-12-22T00:23:12.930Z,95286.95
2018-12-22T00:25:47.514Z,95290.77
2018-12-22T00:28:22.570Z,95287.86
2018-12-22T00:30:57.702Z,95286.86
2018-12-22T00:33:32.923Z,95284.97
2018-12-22T00:36:07.367Z,95288.08
2018-12-22T00:38:41.843Z,95291.95
2018-12-22T00:41:16.731Z,95306.02
2018-12-22T00:43:51.527Z,95309.20
2018-12-22T00:46:26.054Z,95320.01
2018-12-22T00:49:00.791Z,95322.69
2018-12-22T00:51:35.431Z,95311.17
2018-12-22T00:54:10.636Z,95314.97
2018-12-22T00:56:44.981Z,95320.02
2018-12-22T00:59:19.484Z,95312.64
2018-12-22T01:01:54.018Z,95315.74
2018-12-22T01:04:28.298Z,95328.73
2018-12-22T01:07:02.897Z,95328.89
2018-12-22T01:09:37.539Z,95317.00
2018-12-22T01:12:12.837Z,95320.90
2018-12-22T01:14:48.690Z,95317.00
2018-12-22T01:17:23.171Z,95312.87
2018-12-22T01:19:57.934Z,95311.50
2018-12-22T01:22:33.021Z,95321.66
2018-12-22T01:25:08.522Z,95318.13
2018-12-22T01:27:43.122Z,95322.15
2018-12-22T01:30:17.891Z,95338.48
2018-12-22T01:32:52.194Z,95342.38
2018-12-22T01:35:27.112Z,95336.33
2018-12-22T01:38:01.749Z,95327.53
2018-12-22T01:40:36.981Z,95343.74
2018-12-22T01:43:11.600Z,95344.31
2018-12-22T01:45:46.615Z,95326.65
2018-12-22T01:48:21.702Z,95315.30
2018-12-22T01:50:56.578Z,95324.43
2018-12-22T01:53:31.090Z,95325.35
2018-12-22T01:56:06.550Z,95319.35
2018-12-22T01:58:47.839Z,95321.47
2018-12-22T02:01:17.939Z,95320.90
2018-12-22T02:03:52.783Z,95311.08
2018-12-22T02:06:28.244Z,95306.87
2018-12-22T02:09:03.889Z,95294.11
2018-12-22T02:11:38.747Z,95305.65
2018-12-22T02:14:13.447Z,95307.56
2018-12-22T02:16:48.014Z,95312.41
2018-12-22T02:19:22.955Z,95310.92
2018-12-22T02:21:57.530Z,95322.97
2018-12-22T02:24:32.486Z,95311.77
2018-12-22T02:27:07.022Z,95308.55
2018-12-22T02:29:41.505Z,95309.47
2018-12-22T02:32:18.345Z,95297.47
2018-12-22T02:34:53.579Z,95319.45
2018-12-22T02:37:28.270Z,95301.91
2018-12-22T02:40:03.895Z,95289.06
2018-12-22T02:42:38.799Z,95291.97
2018-12-22T02:45:13.217Z,95285.09
2018-12-22T02:47:47.506Z,95277.09
2018-12-22T02:50:22.549Z,95279.81
2018-12-22T02:52:57.034Z,95271.73
2018-12-22T02:55:31.860Z,95277.36
2018-12-22T02:58:06.452Z,95275.59
2018-12-22T03:00:41.215Z,95282.55
2018-12-22T03:03:16.503Z,95282.35
2018-12-22T03:05:50.867Z,95274.48
2018-12-22T03:08:25.944Z,95283.09
2018-12-22T03:11:01.047Z,95285.34
2018-12-22T03:13:35.603Z,95284.23
2018-12-22T03:16:10.323Z,95289.05
2018-12-22T03:18:44.607Z,95286.33
2018-12-22T03:21:19.693Z,95279.58
2018-12-22T03:23:54.457Z,95283.73
2018-12-22T03:26:29.609Z,95269.52
2018-12-22T03:29:04.659Z,95276.02
2018-12-22T03:31:39.540Z,95272.16
2018-12-22T03:34:14.914Z,95264.32
2018-12-22T03:36:51.952Z,95266.47
2018-12-22T03:39:26.259Z,95262.14
2018-12-22T03:42:01.283Z,95258.85
2018-12-22T03:44:35.692Z,95258.16
2018-12-22T03:47:10.454Z,95244.84
2018-12-22T03:49:45.157Z,95251.15
2018-12-22T03:52:19.549Z,95255.05
2018-12-22T03:54:54.187Z,95243.69
2018-12-22T03:57:28.807Z,95255.69
2018-12-22T04:00:05.203Z,95246.45
2018-12-22T04:02:40.012Z,95240.75
2018-12-22T04:05:15.551Z,95251.38
2018-12-22T04:07:49.984Z,95237.08
2018-12-22T04:10:24.454Z,95231.76
2018-12-22T04:12:58.863Z,95239.06
2018-12-22T04:15:34.055Z,95238.32
2018-12-22T04:18:08.777Z,95231.73
2018-12-22T04:20:43.695Z,95227.94
2018-12-22T04:23:18.314Z,95224.12
2018-12-22T04:25:52.819Z,95217.53
2018-12-22T04:28:27.135Z,95219.73
2018-12-22T04:31:01.802Z,95228.34
2018-12-22T04:33:36.370Z,95216.75
2018-12-22T04:36:10.658Z,95230.61
2018-12-22T04:38:45.307Z,95212.69
2018-12-22T04:41:19.690Z,95224.31
2018-12-22T04:43:54.415Z,95228.13
2018-12-22T04:46:30.345Z,95232.53
2018-12-22T04:49:05.546Z,95251.80
2018-12-22T04:51:40.735Z,95236.50
2018-12-22T04:54:15.598Z,95231.70
2018-12-22T04:56:50.343Z,95243.41
2018-12-22T04:59:25.055Z,95254.87
2018-12-22T05:02:00.390Z,95243.16
2018-12-22T05:04:35.095Z,95258.39
2018-12-22T05:07:09.587Z,95246.00
2018-12-22T05:09:45.290Z,95248.97
2018-12-22T05:12:20.339Z,95264.99
2018-12-22T05:14:55.491Z,95278.62
2018-12-22T05:17:29.939Z,95274.21
2018-12-22T05:20:06.446Z,95265.90
2018-12-22T05:22:41.186Z,95279.81
2018-12-22T05:25:16.395Z,95276.52
2018-12-22T05:27:51.697Z,95286.73
2018-12-22T05:30:26.178Z,95262.23
2018-12-22T05:33:00.785Z,95271.55
2018-12-22T05:35:35.903Z,95277.81
2018-12-22T05:38:11.499Z,95277.02
2018-12-22T05:40:46.454Z,95284.83
2018-12-22T05:43:21.173Z,95272.84
2018-12-22T05:45:56.154Z,95284.22
2018-12-22T05:48:31.117Z,95265.34
2018-12-22T05:51:06.074Z,95288.97
2018-12-22T05:53:40.981Z,95295.70
2018-12-22T05:56:15.530Z,95286.06
2018-12-22T05:58:50.666Z,95292.98
2018-12-22T06:01:25.973Z,95304.51
2018-12-22T06:04:01.025Z,95296.50
2018-12-22T06:06:35.705Z,95305.41
2018-12-22T06:09:10.621Z,95304.61
2018-12-22T06:11:45.513Z,95297.91
2018-12-22T06:14:20.250Z,95296.89
2018-12-22T06:16:54.567Z,95308.41
2018-12-22T06:19:29.114Z,95294.89
2018-12-22T06:22:04.586Z,95308.41
2018-12-22T06:24:39.463Z,95310.91
2018-12-22T06:27:14.288Z,95307.51
2018-12-22T06:29:48.777Z,95312.82
2018-12-22T06:32:23.518Z,95329.86
2018-12-22T06:34:58.408Z,95308.81
2018-12-22T06:37:34.836Z,95303.41
2018-12-22T06:40:10.311Z,95312.32
2018-12-22T06:42:44.838Z,95324.84
2018-12-22T06:45:19.507Z,95316.24
2018-12-22T06:47:54.140Z,95335.97
2018-12-22T06:50:28.919Z,95328.16
2018-12-22T06:53:03.640Z,95335.67
2018-12-22T06:55:47.738Z,95327.86
2018-12-22T06:58:22.387Z,95318.94
2018-12-22T07:00:57.162Z,95327.91
2018-12-22T07:03:39.628Z,95309.84
2018-12-22T07:06:14.774Z,95313.08
2018-12-22T07:08:49.348Z,95315.18
2018-12-22T07:11:30.599Z,95304.31
2018-12-22T07:14:05.525Z,95308.22
2018-12-22T07:16:40.439Z,95307.82
2018-12-22T07:19:15.386Z,95319.34
2018-12-22T07:21:50.267Z,95330.77
2018-12-22T07:24:25.289Z,95324.80
2018-12-22T07:27:00.070Z,95330.91
2018-12-22T07:29:34.834Z,95314.64
2018-12-22T07:32:09.599Z,95301.22
2018-12-22T07:34:43.947Z,95307.06
2018-12-22T07:37:18.772Z,95329.51
2018-12-22T07:39:53.238Z,95332.11
2018-12-22T07:42:27.775Z,95316.09
2018-12-22T07:45:02.242Z,95325.22
2018-12-22T07:47:37.258Z,95326.63
2018-12-22T07:50:12.063Z,95321.81
2018-12-22T07:52:51.555Z,95335.14
2018-12-22T07:55:23.534Z,95332.53
2018-12-22T07:57:59.421Z,95341.28
2018-12-22T08:00:35.294Z,95345.20
2018-12-22T08:03:10.471Z,95355.22
2018-12-22T08:05:45.219Z,95356.63
2018-12-22T08:08:19.579Z,95371.77
2018-12-22T08:10:54.076Z,95367.85
2018-12-22T08:13:28.780Z,95393.42
2018-12-22T08:16:03.802Z,95392.41
2018-12-22T08:18:38.342Z,95401.14
2018-12-22T08:21:12.634Z,95402.52
2018-12-22T08:23:47.571Z,95413.61
2018-12-22T08:26:22.087Z,95413.95
2018-12-22T08:28:57.130Z,95420.37
2018-12-22T08:31:31.751Z,95425.57
2018-12-22T08:34:06.646Z,95446.33
2018-12-22T08:36:41.756Z,95432.30
2018-12-22T08:39:16.194Z,95459.95
2018-12-22T08:41:52.027Z,95431.53
2018-12-22T08:44:27.025Z,95425.11
2018-12-22T08:47:02.350Z,95443.23
2018-12-22T08:49:39.842Z,95438.36
2018-12-22T08:52:14.835Z,95456.98
2018-12-22T08:54:53.697Z,95473.98
2018-12-22T08:57:28.714Z,95486.84
2018-12-22T09:00:03.551Z,95465.87
2018-12-22T09:02:38.347Z,95481.05
2018-12-22T09:05:13.013Z,95505.13
2018-12-22T09:07:52.577Z,95492.30
2018-12-22T09:10:27.562Z,95512.63
2018-12-22T09:13:02.477Z,95515.28
2018-12-22T09:15:37.043Z,95524.78
2018-12-22T09:18:11.752Z,95539.79
2018-12-22T09:20:46.241Z,95521.60
2018-12-22T09:23:21.136Z,95533.02
2018-12-22T09:25:57.012Z,95535.13
2018-12-22T09:28:31.739Z,95532.89
2018-12-22T09:31:06.733Z,95527.98
2018-12-22T09:33:41.931Z,95539.55
2018-12-22T09:36:16.751Z,95551.13
2018-12-22T09:38:56.712Z,95560.09
2018-12-22T09:41:31.431Z,95558.24
2018-12-22T09:44:06.406Z,95568.59
2018-12-22T09:46:41.354Z,95558.28
2018-12-22T09:49:16.019Z,95567.28
2018-12-22T09:51:51.190Z,95559.45
2018-12-22T09:54:25.562Z,95563.28
2018-12-22T09:57:00.103Z,95570.11
2018-12-22T10:00:03.969Z,95580.91
2018-12-22T10:02:40.226Z,95584.97
2018-12-22T10:05:15.998Z,95579.84
2018-12-22T10:07:50.719Z,95570.22
2018-12-22T10:10:26.132Z,95564.78
2018-12-22T10:13:00.921Z,95579.24
2018-12-22T10:15:35.795Z,95582.77
2018-12-22T10:18:10.138Z,95571.94
2018-12-22T10:20:44.911Z,95571.33
2018-12-22T10:23:19.549Z,95570.03
2018-12-22T10:25:53.954Z,95570.32
2018-12-22T10:28:28.607Z,95595.72
2018-12-22T10:31:03.718Z,95568.84
2018-12-22T10:33:39.318Z,95567.82
2018-12-22T10:36:13.697Z,95563.94
2018-12-22T10:38:48.322Z,95583.36
2018-12-22T10:41:22.885Z,95572.09
2018-12-22T10:43:57.510Z,95570.38
2018-12-22T10:46:32.574Z,95578.63
2018-12-22T10:49:07.343Z,95582.11
2018-12-22T10:51:42.294Z,95575.37
2018-12-22T10:54:17.302Z,95576.67
2018-12-22T10:56:53.191Z,95576.98
2018-12-22T10:59:27.852Z,95568.86
2018-12-22T11:02:02.499Z,95566.67
2018-12-22T11:04:37.494Z,95572.88
2018-12-22T11:07:12.226Z,95575.63
2018-12-22T11:09:46.752Z,95575.56
2018-12-22T11:12:21.517Z,95583.11
2018-12-22T11:14:56.192Z,95585.78
2018-12-22T11:17:30.931Z,95595.02
2018-12-22T11:20:06.901Z,95579.97
2018-12-22T11:22:41.735Z,95594.81
2018-12-22T11:25:26.551Z,95589.98
2018-12-22T11:28:01.834Z,95585.77
2018-12-22T11:30:41.685Z,95586.89
2018-12-22T11:33:16.655Z,95580.57
2018-12-22T11:35:51.810Z,95580.38
2018-12-22T11:38:27.303Z,95585.97
2018-12-22T11:41:02.213Z,95578.77
2018-12-22T11:43:36.940Z,95578.47
2018-12-22T11:46:11.595Z,95594.52
2018-12-22T11:49:14.649Z,95608.09
2018-12-22T11:51:49.865Z,95598.67
2018-12-22T11:54:29.078Z,95597.95
2018-12-22T11:57:04.048Z,95598.15
2018-12-22T11:59:39.091Z,95598.70
2018-12-22T12:02:14.035Z,95616.39
2018-12-22T12:04:49.050Z,95604.19
2018-12-22T12:07:24.647Z,95615.09
2018-12-22T12:09:59.023Z,95619.58
2018-12-22T12:12:33.906Z,95594.62
2018-12-22T12:15:17.774Z,95607.50
2018-12-22T12:18:05.314Z,95656.63
2018-12-22T12:20:40.106Z,95667.04
2018-12-22T12:23:14.405Z,95647.65
2018-12-22T12:25:49.438Z,95652.61
2018-12-22T12:28:23.906Z,95676.34
2018-12-22T12:30:58.711Z,95668.62
2018-12-22T12:33:33.234Z,95669.97
2018-12-22T12:36:08.403Z,95685.61
2018-12-22T12:38:43.208Z,95666.46
2018-12-22T12:41:17.531Z,95669.25
2018-12-22T12:43:52.510Z,95675.45
2018-12-22T12:46:39.110Z,95669.38
2018-12-22T12:49:14.084Z,95670.46
2018-12-22T12:51:50.142Z,95677.98
2018-12-22T12:54:24.897Z,95682.14
2018-12-22T12:56:59.796Z,95684.70
2018-12-22T12:59:35.157Z,95693.68
2018-12-22T13:02:09.868Z,95681.74
2018-12-22T13:04:44.391Z,95677.84
2018-12-22T13:07:19.489Z,95680.86
2018-12-22T13:09:54.574Z,95691.09
2018-12-22T13:12:34.634Z,95690.52
2018-12-22T13:15:10.787Z,95693.00
2018-12-22T13:17:45.334Z,95686.13
2018-12-22T13:20:20.095Z,95698.95
2018-12-22T13:22:55.229Z,95691.62
2018-12-22T13:25:29.702Z,95683.77
2018-12-22T13:28:04.838Z,95690.94
2018-12-22T13:30:39.480Z,95699.31
2018-12-22T13:33:14.327Z,95699.86
2018-12-22T13:35:48.958Z,95700.56
2018-12-22T13:38:24.797Z,95707.12
2018-12-22T13:40:59.747Z,95715.92
2018-12-22T13:43:34.375Z,95720.09
2018-12-22T13:46:12.083Z,95714.08
2018-12-22T13:48:47.294Z,95721.23
2018-12-22T13:51:22.689Z,95729.56
2018-12-22T13:53:57.665Z,95727.27
2018-12-22T13:56:32.355Z,95726.75
2018-12-22T13:59:07.519Z,95738.23
2018-12-22T14:01:46.361Z,95742.44
2018-12-22T14:04:21.319Z,95738.41
2018-12-22T14:06:56.377Z,95741.01
2018-12-22T14:09:32.942Z,95748.00
2018-12-22T14:12:07.698Z,95748.55
2018-12-22T14:14:43.279Z,95757.61
2018-12-22T14:17:25.755Z,95762.94
2018-12-22T14:20:04.775Z,95762.86
2018-12-22T14:22:39.492Z,95740.56
2018-12-22T14:25:18.448Z,95761.69
2018-12-22T14:27:53.226Z,95757.18
2018-12-22T14:30:28.097Z,95759.28
2018-12-22T14:33:02.498Z,95774.09
2018-12-22T14:35:41.528Z,95764.00
2018-12-22T14:38:15.818Z,95770.34
2018-12-22T14:40:50.712Z,95766.02
2018-12-22T14:43:25.218Z,95765.93
2018-12-22T14:45:59.680Z,95777.52
2018-12-22T14:48:34.122Z,95779.48
2018-12-22T14:51:08.621Z,95796.39
2018-12-22T14:53:43.418Z,95789.00
2018-12-22T14:56:18.911Z,95814.28
2018-12-22T14:58:53.977Z,95816.66
2018-12-22T15:01:28.812Z,95845.78
2018-12-22T15:04:03.494Z,95844.65
2018-12-22T15:06:39.140Z,95842.91
2018-12-22T15:09:13.880Z,95836.45
2018-12-22T15:11:49.004Z,95840.52
2018-12-22T15:14:23.755Z,95827.20
2018-12-22T15:16:58.987Z,95852.04
2018-12-22T15:19:36.472Z,95844.77
2018-12-22T15:22:10.958Z,95849.14
2018-12-22T15:24:45.367Z,95851.91
2018-12-22T15:27:20.148Z,95859.19
2018-12-22T15:29:54.774Z,95849.80
2018-12-22T15:32:30.345Z,95857.27
2018-12-22T15:35:05.892Z,95852.22
2018-12-22T15:37:40.702Z,95852.24
2018-12-22T15:40:15.436Z,95855.16
2018-12-22T15:42:51.721Z,95863.75
2018-12-22T15:45:26.931Z,95867.80
2018-12-22T15:48:02.053Z,95867.16
2018-12-22T15:50:38.184Z,95869.94
2018-12-22T15:53:13.067Z,95867.34
2018-12-22T15:55:47.741Z,95862.94
2018-12-22T15:58:22.266Z,95859.06
2018-12-22T16:00:57.107Z,95862.60
2018-12-22T16:03:32.075Z,95849.34
2018-12-22T16:06:07.335Z,95862.33
2018-12-22T16:08:41.976Z,95863.58
2018-12-22T16:11:16.306Z,95871.22
2018-12-22T16:13:51.107Z,95865.39
2018-12-22T16:16:25.810Z,95863.13
2018-12-22T16:19:00.571Z,95867.34
2018-12-22T16:21:35.494Z,95867.64
2018-12-22T16:24:10.119Z,95870.08
2018-12-22T16:26:44.535Z,95873.49
2018-12-22T16:29:27.435Z,95883.27
2018-12-22T16:32:02.713Z,95879.20
2018-12-22T16:34:37.110Z,95871.13
2018-12-22T16:37:12.488Z,95872.59
2018-12-22T16:39:47.297Z,95883.63
2018-12-22T16:42:22.352Z,95890.10
2018-12-22T16:44:56.875Z,95892.86
2018-12-22T16:47:31.427Z,95891.19
2018-12-22T16:50:09.476Z,95892.49
2018-12-22T16:52:44.366Z,95899.30
2018-12-22T16:55:18.686Z,95904.28
2018-12-22T16:58:01.620Z,95911.41
2018-12-22T17:00:41.558Z,95925.98
2018-12-22T17:03:16.534Z,95920.48
2018-12-22T17:05:50.994Z,95919.83
2018-12-22T17:08:25.318Z,95921.61
2018-12-22T17:11:02.991Z,95902.83
2018-12-22T17:13:37.594Z,95916.78
2018-12-22T17:16:12.483Z,95932.66
2018-12-22T17:18:47.658Z,95938.45
2018-12-22T17:21:26.573Z,95928.58
2018-12-22T17:25:09.196Z,95938.45
2018-12-22T17:27:43.627Z,95935.34
2018-12-22T17:30:18.549Z,95949.58
2018-12-22T17:32:53.202Z,95960.74
2018-12-22T17:35:27.998Z,95954.27
2018-12-22T17:38:02.745Z,95955.08
2018-12-22T17:40:40.496Z,95957.19
2018-12-22T17:43:14.770Z,95961.24
2018-12-22T17:45:49.368Z,95954.63
2018-12-22T17:48:23.829Z,95958.20
2018-12-22T17:50:58.961Z,95970.34
2018-12-22T17:53:33.364Z,95968.41
2018-12-22T17:56:07.787Z,95969.53
2018-12-22T17:58:42.113Z,95975.20
2018-12-22T18:01:16.949Z,95973.42
2018-12-22T18:03:51.786Z,95984.77
2018-12-22T18:09:13.702Z,95992.58
2018-12-22T18:11:48.571Z,95986.27
2018-12-22T18:14:23.160Z,95991.41
2018-12-22T18:16:58.370Z,95999.05
2018-12-22T18:19:32.907Z,96005.69
2018-12-22T18:22:08.234Z,96002.25
2018-12-22T18:24:42.635Z,95999.02
2018-12-22T18:27:17.578Z,96000.31
2018-12-22T18:29:52.247Z,96010.68
2018-12-22T18:32:26.763Z,96005.00
2018-12-22T18:35:01.899Z,96007.11
2018-12-22T18:37:36.598Z,96003.22
2018-12-22T18:40:15.194Z,96003.55
2018-12-22T18:42:50.036Z,96011.20
2018-12-22T18:45:24.754Z,96015.42
2018-12-22T18:47:59.634Z,96026.10
2018-12-22T18:50:34.338Z,96012.02
2018-12-22T18:53:08.993Z,96022.50
2018-12-22T18:55:43.881Z,96032.84
2018-12-22T18:58:18.907Z,96023.94
2018-12-22T19:00:53.219Z,96018.44
2018-12-22T19:03:27.591Z,96023.73
2018-12-22T19:06:02.421Z,96013.36
2018-12-22T19:08:37.546Z,96010.59
2018-12-22T19:11:13.904Z,96011.52
2018-12-22T19:13:48.630Z,96005.89
2018-12-22T19:16:23.066Z,96004.72
2018-12-22T19:18:57.510Z,96003.10
2018-12-22T19:21:31.992Z,96010.61
2018-12-22T19:24:06.423Z,96014.83
2018-12-22T19:26:41.395Z,96027.82
2018-12-22T19:29:16.379Z,96021.84
2018-12-22T19:31:50.719Z,96027.34
2018-12-22T19:34:25.700Z,96030.59
2018-12-22T19:37:00.329Z,96035.45
2018-12-22T19:39:35.410Z,96052.46
2018-12-22T19:42:09.722Z,96051.86
2018-12-22T19:44:46.116Z,96060.28
2018-12-22T19:47:20.958Z,96068.06
2018-12-22T19:49:55.699Z,96062.23
2018-12-22T19:52:31.404Z,96068.44
2018-12-22T19:55:06.715Z,96062.56
2018-12-22T19:57:41.576Z,96071.67
2018-12-22T20:00:32.232Z,96073.34
2018-12-22T20:03:09.064Z,96068.11
2018-12-22T20:11:36.510Z,96065.60
2018-12-22T20:14:11.784Z,96066.41
2018-12-22T20:16:46.817Z,96071.28
2018-12-22T20:19:21.379Z,96063.98
2018-12-22T20:21:56.471Z,96067.72
2018-12-22T20:24:31.009Z,96068.88
2018-12-22T20:27:05.571Z,96065.28
2018-12-22T20:29:40.274Z,96067.72
2018-12-22T20:38:15.991Z,96058.44
2018-12-22T20:40:52.311Z,96062.00
2018-12-22T20:43:26.818Z,96073.18
2018-12-22T20:46:01.239Z,96070.30
2018-12-22T20:48:36.378Z,96063.62
2018-12-22T20:51:12.480Z,96064.75
2018-12-22T20:53:46.997Z,96057.34
2018-12-22T20:56:21.547Z,96055.84
2018-12-22T20:58:55.916Z,96054.75
2018-12-22T21:12:58.211Z,96049.72
2018-12-22T21:15:33.355Z,96061.52
2018-12-22T21:18:08.108Z,96064.75
2018-12-22T21:23:51.918Z,96061.06
2018-12-22T21:26:27.429Z,96055.36
2018-12-22T21:29:03.699Z,96063.49
2018-12-22T21:31:38.758Z,96064.47
2018-12-22T21:37:13.971Z,96067.50
2018-12-22T21:39:48.788Z,96073.61
2018-12-22T21:42:27.562Z,96077.38
2018-12-22T21:45:06.258Z,96084.67
2018-12-22T21:47:50.475Z,96087.11
2018-12-22T21:53:24.044Z,96093.88
2018-12-22T21:55:59.475Z,96097.07
2018-12-22T21:58:48.104Z,96094.15
2018-12-22T22:01:40.018Z,96094.34
2018-12-22T22:04:18.336Z,96093.02
2018-12-22T22:06:56.507Z,96094.48
2018-12-22T22:09:35.329Z,96092.73
2018-12-22T22:12:12.787Z,96092.20
2018-12-22T22:14:52.673Z,96083.78
2018-12-22T22:17:32.308Z,96081.02
2018-12-22T22:20:10.548Z,96085.72
2018-12-22T22:22:51.889Z,96089.66
2018-12-22T22:25:31.748Z,96090.95
2018-12-22T22:28:11.426Z,96086.69
2018-12-22T22:30:51.674Z,96089.45
2018-12-22T22:33:26.519Z,96097.07
2018-12-22T22:36:10.766Z,96105.69
2018-12-22T22:38:51.140Z,96103.11
2018-12-22T22:41:29.513Z,96099.34
2018-12-22T22:44:16.315Z,96096.61
2018-12-22T22:47:06.711Z,96098.23
2018-12-22T22:49:41.111Z,96095.52
2018-12-22T22:55:21.671Z,96092.69
2018-12-22T22:58:03.061Z,96085.40
2018-12-22T23:03:55.131Z,96087.83
2018-12-22T23:06:33.664Z,96103.59
2018-12-22T23:12:21.470Z,96105.38
2018-12-22T23:17:53.137Z,96116.16
2018-12-22T23:20:33.950Z,96113.89
2018-12-22T23:23:12.642Z,96116.75
2018-12-22T23:25:59.439Z,96110.77
2018-12-22T23:28:39.722Z,96109.03
2018-12-22T23:34:16.699Z,96103.95
2018-12-22T23:36:53.390Z,96097.81
2018-12-22T23:39:27.915Z,96097.00
2018-12-22T23:45:16.391Z,96096.83
2018-12-22T23:47:57.637Z,96099.22
2018-12-22T23:53:38.043Z,96091.59
2018-12-22T23:56:15.866Z,96095.85
2018-12-22T23:59:08.877Z,96113.46
